Time;durP1;ratioP1;P1;durP2;ratioP2;P2;SDS_P1;SDS_P2;PMS_P1;PMS_P2;Temp;Humidity;BMP_temperature;BMP_pressure;BME280_temperature;BME280_humidity;BME280_pressure;Samples;Min_cycle;Max_cycle;Signal;HPM_P1;HPM_P2
2023/06/28 00:00:15;;;;;;;15.02;6.43;;;20.60;99.90;;;21.26;75.64;101751.16;4726773;30;20056;-81
2023/06/28 00:02:45;;;;;;;15.07;7.00;;;20.70;99.90;;;21.26;75.80;101743.06;4724181;30;20057;-80
2023/06/28 00:05:14;;;;;;;15.00;6.82;;;20.70;99.90;;;21.27;75.72;101740.31;4716365;30;20074;-81
2023/06/28 00:07:42;;;;;;;14.90;7.18;;;20.70;99.90;;;21.30;75.96;101742.94;4716526;30;20045;-79
2023/06/28 00:10:11;;;;;;;17.60;7.38;;;20.70;99.90;;;21.30;76.04;101736.66;4716438;30;20073;-80
2023/06/28 00:12:39;;;;;;;12.52;6.57;;;20.70;99.90;;;21.33;76.17;101729.34;4720858;30;20057;-81
2023/06/28 00:15:09;;;;;;;12.38;6.55;;;20.70;99.90;;;21.31;76.27;101730.34;4726711;30;20049;-80
2023/06/28 00:17:38;;;;;;;15.38;7.32;;;20.70;99.90;;;21.33;76.24;101731.19;4725798;30;20565;-77
2023/06/28 00:20:10;;;;;;;17.42;7.30;;;20.80;99.90;;;21.36;76.17;101725.69;4725277;30;20060;-80
2023/06/28 00:22:39;;;;;;;15.10;6.75;;;20.80;99.90;;;21.39;76.03;101730.94;4723596;30;20064;-81
2023/06/28 00:25:09;;;;;;;14.55;7.63;;;20.80;99.90;;;21.44;75.90;101737.06;4724287;30;20045;-80
2023/06/28 00:27:37;;;;;;;13.63;6.47;;;20.90;99.90;;;21.47;75.51;101736.94;4726357;30;20052;-80
2023/06/28 00:30:09;;;;;;;13.32;6.88;;;20.90;99.90;;;21.46;75.35;101736.09;4725132;30;20065;-79
2023/06/28 00:32:37;;;;;;;;;;;20.90;99.90;;;21.46;75.33;101733.38;4724689;30;20184;-80
2023/06/28 00:35:08;;;;;;;11.63;6.90;;;21.00;99.90;;;21.46;74.96;101729.81;4707713;30;19927;-80
2023/06/28 00:37:36;;;;;;;11.70;6.22;;;20.90;99.90;;;21.48;74.70;101736.03;4717697;30;20138;-81
2023/06/28 00:40:08;;;;;;;14.32;7.30;;;20.90;99.90;;;21.48;74.77;101734.22;4708632;30;20052;-80
2023/06/28 00:42:37;;;;;;;11.23;6.05;;;20.90;99.90;;;21.48;75.05;101734.22;4724096;30;20057;-80
2023/06/28 00:45:06;;;;;;;13.13;7.65;;;20.90;99.90;;;21.49;75.18;101735.97;4717368;30;20061;-80
2023/06/28 00:47:35;;;;;;;13.23;6.55;;;20.90;99.90;;;21.47;75.24;101736.94;4708444;30;20529;-80
2023/06/28 00:50:04;;;;;;;12.65;6.97;;;20.90;99.90;;;21.43;76.49;101732.59;4708778;30;20059;-80
2023/06/28 00:52:34;;;;;;;11.13;7.45;;;20.90;99.90;;;21.25;77.40;101730.56;4728423;30;20524;-80
2023/06/28 00:55:03;;;;;;;14.63;7.40;;;20.70;99.90;;;21.03;78.56;101724.16;4729329;30;20073;-80
2023/06/28 00:57:32;;;;;;;14.02;7.82;;;20.50;99.90;;;20.87;79.55;101712.09;4718579;30;20059;-78
2023/06/28 01:00:08;;;;;;;18.45;8.18;;;20.30;99.90;;;20.79;79.76;101711.50;4729796;30;20092;-81
2023/06/28 01:02:36;;;;;;;13.25;7.70;;;20.30;99.90;;;20.81;80.22;101715.88;4719776;30;20053;-80
2023/06/28 01:05:05;;;;;;;14.82;8.73;;;20.30;99.90;;;20.76;81.10;101714.25;4703758;30;20057;-80
2023/06/28 01:07:37;;;;;;;17.08;8.30;;;20.20;99.90;;;20.60;81.29;101716.56;4719306;30;20061;-80
2023/06/28 01:10:07;;;;;;;13.93;7.28;;;20.00;99.90;;;20.42;81.86;101712.66;4722798;30;20055;-81
2023/06/28 01:12:37;;;;;;;17.45;7.97;;;19.90;99.90;;;20.46;82.23;101717.00;4729411;30;20048;-81
2023/06/28 01:15:07;;;;;;;15.10;7.43;;;19.90;99.90;;;20.43;82.30;101711.75;4726597;30;20057;-80
2023/06/28 01:17:39;;;;;;;13.35;8.25;;;19.90;99.90;;;20.52;82.22;101711.44;4713496;30;20412;-81
2023/06/28 01:20:10;;;;;;;14.32;7.88;;;20.00;99.90;;;20.52;82.27;101713.25;4710758;30;20056;-81
2023/06/28 01:22:41;;;;;;;17.85;8.95;;;20.00;99.90;;;20.45;82.48;101712.56;4710657;30;20052;-78
2023/06/28 01:25:11;;;;;;;15.90;7.65;;;20.00;99.90;;;20.33;82.51;101696.81;4728841;30;20419;-81
2023/06/28 01:27:44;;;;;;;12.43;7.43;;;19.90;99.90;;;20.44;82.22;101705.41;4717787;30;20087;-80
2023/06/28 01:30:16;;;;;;;11.75;7.80;;;19.90;99.90;;;20.25;82.19;101690.81;4710674;30;20148;-81
2023/06/28 01:32:44;;;;;;;17.23;8.32;;;20.00;99.90;;;20.21;82.74;101691.81;4719992;30;20064;-79
2023/06/28 01:35:14;;;;;;;12.23;7.38;;;19.90;99.90;;;20.29;82.96;101713.97;4727799;30;20053;-81
2023/06/28 01:37:44;;;;;;;15.63;7.87;;;19.90;99.90;;;20.32;83.24;101719.28;4727539;30;20052;-80
2023/06/28 01:40:15;;;;;;;13.27;6.90;;;19.90;99.90;;;20.43;82.90;101714.44;4727169;30;20061;-81
2023/06/28 01:42:44;;;;;;;12.55;7.25;;;20.00;99.90;;;20.48;82.50;101708.88;4726420;30;20588;-81
2023/06/28 01:45:13;;;;;;;12.50;7.10;;;20.00;99.90;;;20.52;82.37;101719.50;4718693;30;20107;-80
2023/06/28 01:47:41;;;;;;;13.38;7.05;;;20.10;99.90;;;20.59;82.26;101722.91;4702822;30;20064;-81
2023/06/28 01:50:11;;;;;;;15.45;7.03;;;20.10;99.90;;;20.71;81.76;101721.63;4718695;30;20068;-81
2023/06/28 01:52:39;;;;;;;13.05;6.70;;;20.20;99.90;;;20.73;81.37;101711.69;4718843;30;20107;-81
2023/06/28 01:55:10;;;;;;;13.65;7.43;;;20.30;99.90;;;20.84;81.25;101720.28;4726921;30;20504;-81
2023/06/28 01:57:41;;;;;;;13.38;6.60;;;20.30;99.90;;;20.85;81.17;101714.84;4725493;30;20061;-81
2023/06/28 02:00:10;;;;;;;13.15;7.55;;;20.40;99.90;;;20.85;80.80;101701.38;4727180;30;20095;-82
2023/06/28 02:02:52;;;;;;;16.63;6.65;;;20.40;99.90;;;21.00;80.74;101719.69;4724462;30;20057;-81
2023/06/28 02:05:22;;;;;;;14.70;6.35;;;20.50;99.90;;;21.07;80.64;101717.72;4718404;30;20060;-81
2023/06/28 02:07:50;;;;;;;12.45;6.90;;;20.50;99.90;;;21.13;80.50;101725.59;4710228;30;20072;-82
2023/06/28 02:10:22;;;;;;;13.80;6.82;;;20.60;99.90;;;21.15;80.28;101721.03;4728012;30;20091;-80
2023/06/28 02:12:53;;;;;;;13.90;6.80;;;20.60;99.90;;;21.20;79.93;101721.75;4717471;30;20065;-81
2023/06/28 02:15:22;;;;;;;13.80;6.05;;;20.60;99.90;;;21.20;79.59;101713.69;4725373;30;20516;-81
2023/06/28 02:17:55;;;;;;;12.50;6.35;;;20.70;99.90;;;21.22;79.22;101709.13;4727959;30;20284;-82
2023/06/28 02:20:23;;;;;;;11.02;6.00;;;20.70;99.90;;;21.29;78.77;101716.94;4726661;30;20411;-81
2023/06/28 02:22:51;;;;;;;11.80;5.80;;;20.70;99.90;;;21.32;78.35;101713.25;4726850;30;20075;-81
2023/06/28 02:25:20;;;;;;;10.93;5.60;;;20.80;99.90;;;21.20;78.23;101689.44;4727076;30;20111;-81
2023/06/28 02:27:48;;;;;;;13.60;6.35;;;20.80;99.90;;;21.33;78.40;101709.66;4710253;30;20056;-81
2023/06/28 02:30:19;;;;;;;11.75;6.55;;;20.80;99.90;;;21.32;78.36;101711.44;4727904;30;20063;-81
2023/06/28 02:32:47;;;;;;;;;;;20.80;99.90;;;21.24;78.58;101707.25;4725352;30;20122;-81
2023/06/28 02:35:18;;;;;;;14.40;6.40;;;20.80;99.90;;;21.27;78.69;101705.34;4718047;30;20356;-76
2023/06/28 02:37:47;;;;;;;13.57;6.85;;;20.70;99.90;;;21.25;78.56;101715.28;4718025;30;20060;-81
2023/06/28 02:40:15;;;;;;;12.43;6.50;;;20.70;99.90;;;21.25;78.75;101698.25;4718073;30;20408;-81
2023/06/28 02:42:44;;;;;;;12.98;6.22;;;20.70;99.90;;;21.27;78.65;101704.47;4705657;30;20495;-81
2023/06/28 02:45:13;;;;;;;11.30;6.35;;;20.70;99.90;;;21.26;78.29;101694.63;4726946;30;20447;-82
2023/06/28 02:47:44;;;;;;;15.35;5.72;;;20.70;99.90;;;21.23;77.46;101694.75;4717023;30;20071;-81
2023/06/28 02:50:13;;;;;;;;;;;20.70;99.90;;;21.21;76.98;101700.19;4709646;30;20411;-82
2023/06/28 02:53:00;;;;;;;9.73;6.28;;;20.70;99.90;;;21.13;76.79;101677.16;4708319;30;20286;-81
2023/06/28 02:55:29;;;;;;;12.18;5.78;;;20.70;99.90;;;21.25;76.61;101696.44;4725697;30;20060;-82
2023/06/28 02:58:02;;;;;;;9.98;5.38;;;20.70;99.90;;;21.28;76.61;101693.66;4716620;30;20065;-82
2023/06/28 03:00:30;;;;;;;10.55;5.82;;;20.70;99.90;;;21.15;76.19;101691.44;4702075;30;20552;-79
2023/06/28 03:03:03;;;;;;;9.35;5.53;;;20.60;99.90;;;21.07;75.63;101694.41;4701909;30;20061;-82
2023/06/28 03:05:33;;;;;;;10.45;5.63;;;20.60;99.90;;;21.10;75.35;101683.50;4701990;30;20064;-82
2023/06/28 03:08:02;;;;;;;11.63;5.88;;;20.50;99.90;;;21.01;74.85;101689.22;4721094;30;20526;-82
2023/06/28 03:10:31;;;;;;;14.43;6.10;;;20.50;99.90;;;21.04;74.96;101697.19;4725566;30;20122;-82
2023/06/28 03:12:59;;;;;;;11.13;5.90;;;20.50;99.90;;;20.99;74.57;101682.97;4725240;30;20053;-82
2023/06/28 03:15:27;;;;;;;11.13;5.80;;;20.50;99.90;;;21.01;74.58;101693.72;4727507;30;20056;-82
2023/06/28 03:17:56;;;;;;;10.73;5.43;;;20.50;99.90;;;21.08;74.60;101697.97;4709005;30;20059;-82
2023/06/28 03:20:27;;;;;;;12.02;5.38;;;20.50;99.90;;;21.15;74.52;101688.75;4723431;30;20053;-82
2023/06/28 03:22:57;;;;;;;9.65;5.60;;;20.60;99.90;;;21.17;74.44;101697.66;4726067;30;20498;-80
2023/06/28 03:25:25;;;;;;;11.38;5.85;;;20.60;99.90;;;21.16;74.45;101694.06;4724554;30;20061;-82
2023/06/28 03:27:54;;;;;;;11.20;5.97;;;20.60;99.90;;;21.17;74.43;101693.16;4717762;30;20060;-82
2023/06/28 03:30:22;;;;;;;11.13;5.20;;;20.70;99.90;;;21.11;74.88;101676.34;4710653;30;20057;-80
2023/06/28 03:32:50;;;;;;;11.88;6.55;;;20.70;99.90;;;21.18;75.31;101688.63;4725619;30;20132;-82
2023/06/28 03:35:19;;;;;;;10.05;5.97;;;20.60;99.90;;;21.07;75.59;101669.28;4725496;30;20483;-81
2023/06/28 03:37:53;;;;;;;11.52;6.25;;;20.60;99.90;;;21.20;75.84;101690.34;4724782;30;20057;-81
2023/06/28 03:40:22;;;;;;;11.90;6.70;;;20.60;99.90;;;21.17;76.24;101673.44;4711163;30;20114;-82
2023/06/28 03:42:52;;;;;;;12.93;6.60;;;20.60;99.90;;;20.97;76.54;101643.59;4724747;30;20053;-82
2023/06/28 03:45:21;;;;;;;;;;;20.60;99.90;;;21.11;76.91;101673.63;4725075;30;20061;-82
2023/06/28 03:47:50;;;;;;;16.95;6.80;;;20.60;99.90;;;21.10;77.21;101667.38;4725428;30;19927;-82
2023/06/28 03:50:19;;;;;;;11.48;6.75;;;20.60;99.90;;;21.10;77.69;101674.59;4709404;30;20061;-80
2023/06/28 03:52:48;;;;;;;10.73;6.90;;;20.60;99.90;;;21.09;77.83;101670.13;4725296;30;20114;-82
2023/06/28 03:55:18;;;;;;;12.88;7.60;;;20.50;99.90;;;21.08;77.99;101668.38;4724413;30;20048;-82
2023/06/28 03:57:46;;;;;;;15.07;7.03;;;20.50;99.90;;;21.08;78.44;101676.44;4727351;30;20098;-82
2023/06/28 04:00:16;;;;;;;12.85;7.72;;;20.50;99.90;;;21.06;78.65;101671.09;4724124;30;20299;-79
2023/06/28 04:02:47;;;;;;;12.07;8.10;;;20.50;99.90;;;21.06;78.67;101668.41;4726421;30;20114;-82
2023/06/28 04:05:16;;;;;;;12.90;8.10;;;20.50;99.90;;;21.11;78.96;101671.84;4724986;30;20057;-80
2023/06/28 04:07:44;;;;;;;12.35;7.90;;;20.50;99.90;;;21.13;78.90;101664.59;4725576;30;20056;-83
2023/06/28 04:10:12;;;;;;;14.38;7.40;;;20.50;99.90;;;21.15;78.92;101665.41;4725468;30;20466;-82
2023/06/28 04:12:42;;;;;;;12.60;8.07;;;20.60;99.90;;;21.13;79.01;101669.09;4724963;30;20052;-80
2023/06/28 04:15:11;;;;;;;15.97;7.87;;;20.60;99.90;;;21.16;79.26;101666.28;4726519;30;20103;-83
2023/06/28 04:17:40;;;;;;;15.32;8.45;;;20.60;99.90;;;21.18;78.99;101669.78;4724056;30;20632;-83
2023/06/28 04:20:10;;;;;;;16.35;8.55;;;20.70;99.90;;;21.13;79.33;101661.91;4716569;30;20053;-82
2023/06/28 04:22:38;;;;;;;16.77;9.00;;;20.60;99.90;;;21.14;79.42;101668.13;4716350;30;20435;-82
2023/06/28 04:25:08;;;;;;;17.67;9.75;;;20.60;99.90;;;21.08;79.75;101663.00;4716262;30;20053;-81
2023/06/28 04:27:36;;;;;;;19.20;9.70;;;20.60;99.90;;;20.90;80.36;101652.81;4719616;30;20126;-82
2023/06/28 04:30:08;;;;;;;17.60;10.70;;;20.50;99.90;;;20.91;80.72;101647.38;4724972;30;20053;-82
2023/06/28 04:32:36;;;;;;;18.33;10.32;;;20.40;99.90;;;20.86;81.30;101649.38;4708368;30;20069;-82
2023/06/28 04:35:06;;;;;;;18.05;10.82;;;20.30;99.90;;;20.68;82.34;101656.25;4726198;30;20059;-82
2023/06/28 04:37:38;;;;;;;22.00;11.85;;;20.20;99.90;;;20.45;82.77;101637.31;4723570;30;20057;-82
2023/06/28 04:40:08;;;;;;;16.45;10.77;;;20.10;99.90;;;20.46;84.03;101652.50;4716208;30;20447;-82
2023/06/28 04:42:36;;;;;;;26.30;11.98;;;20.00;99.90;;;20.22;85.53;101650.59;4716417;30;20057;-82
2023/06/28 04:45:09;;;;;;;26.75;12.55;;;19.80;99.90;;;20.04;86.89;101656.50;4715843;30;20049;-82
2023/06/28 04:47:39;;;;;;;23.10;11.90;;;19.60;99.90;;;20.01;88.04;101650.34;4725608;30;20063;-81
2023/06/28 04:50:09;;;;;;;20.58;11.75;;;19.60;99.90;;;19.87;88.71;101652.56;4723750;30;20053;-81
2023/06/28 04:52:37;;;;;;;18.77;11.57;;;19.50;99.90;;;19.76;88.88;101637.66;4726212;30;20628;-82
2023/06/28 04:55:07;;;;;;;22.42;10.88;;;19.50;99.90;;;19.83;89.06;101653.59;4715948;30;20060;-79
2023/06/28 04:57:35;;;;;;;29.37;11.70;;;19.40;99.90;;;19.76;89.50;101652.91;4715995;30;20074;-81
2023/06/28 05:00:10;;;;;;;17.38;10.60;;;19.40;99.90;;;19.79;89.86;101652.81;4715835;30;20052;-82
2023/06/28 05:02:38;;;;;;;16.98;10.55;;;19.40;99.90;;;19.85;89.60;101649.94;4719489;30;20053;-82
2023/06/28 05:05:08;;;;;;;18.88;10.80;;;19.50;99.90;;;19.97;89.33;101654.06;4725240;30;20076;-82
2023/06/28 05:07:36;;;;;;;21.55;11.38;;;19.50;99.90;;;20.01;88.87;101645.88;4723627;30;20144;-82
2023/06/28 05:10:05;;;;;;;19.73;11.00;;;19.60;99.90;;;20.20;88.32;101655.16;4726360;30;20116;-83
2023/06/28 05:12:34;;;;;;;25.27;11.90;;;19.70;99.90;;;20.24;87.76;101646.06;4716408;30;20053;-81
2023/06/28 05:15:03;;;;;;;19.10;11.27;;;19.80;99.90;;;20.27;87.87;101658.50;4715876;30;20061;-83
2023/06/28 05:17:33;;;;;;;18.40;11.43;;;19.90;99.90;;;20.38;87.27;101651.84;4715883;30;20053;-82
2023/06/28 05:20:03;;;;;;;16.85;10.15;;;19.90;99.90;;;20.30;86.98;101645.88;4724623;30;20057;-83
2023/06/28 05:22:34;;;;;;;20.80;11.23;;;19.90;99.90;;;20.39;86.46;101636.63;4724808;30;20061;-85
2023/06/28 05:25:03;;;;;;;17.73;10.68;;;20.00;99.90;;;20.44;86.46;101642.75;4709821;30;20926;-83
2023/06/28 05:27:31;;;;;;;19.50;10.30;;;20.00;99.90;;;20.43;86.18;101623.03;4723897;30;20063;-82
2023/06/28 05:30:00;;;;;;;19.30;11.23;;;20.10;99.90;;;20.61;85.75;101641.22;4724871;30;20071;-83
2023/06/28 05:32:28;;;;;;;20.20;10.20;;;20.10;99.90;;;20.63;85.32;101638.50;4722911;30;20061;-83
2023/06/28 05:34:58;;;;;;;18.63;10.32;;;20.20;99.90;;;20.56;85.13;101632.44;4700329;30;20073;-82
2023/06/28 05:37:26;;;;;;;18.00;10.47;;;20.20;99.90;;;20.62;85.04;101643.00;4718353;30;20099;-82
2023/06/28 05:39:55;;;;;;;16.35;10.10;;;20.20;99.90;;;20.67;85.16;101646.41;4718709;30;20056;-82
2023/06/28 05:42:23;;;;;;;20.95;10.93;;;20.20;99.90;;;20.45;85.29;101604.16;4718694;30;20063;-82
2023/06/28 05:44:52;;;;;;;16.33;9.95;;;20.20;99.90;;;20.66;85.23;101628.53;4727732;30;20057;-83
2023/06/28 05:47:20;;;;;;;16.63;9.93;;;20.20;99.90;;;20.74;85.03;101639.03;4727128;30;20124;-83
2023/06/28 05:49:49;;;;;;;19.08;10.05;;;20.30;99.90;;;20.80;85.00;101632.56;4726921;30;20061;-83
2023/06/28 05:52:19;;;;;;;17.80;10.65;;;20.30;99.90;;;20.86;85.08;101626.97;4726503;30;20088;-82
2023/06/28 05:54:47;;;;;;;18.70;9.85;;;20.30;99.90;;;20.90;84.59;101631.31;4729189;30;20091;-82
2023/06/28 05:57:16;;;;;;;17.88;10.15;;;20.40;99.90;;;20.94;84.66;101638.34;4718301;30;20091;-82
2023/06/28 05:59:44;;;;;;;18.52;9.90;;;20.40;99.90;;;20.94;84.71;101641.03;4718600;30;20219;-82
2023/06/28 06:02:13;;;;;;;20.73;11.02;;;20.40;99.90;;;20.94;84.98;101633.84;4718284;30;20052;-83
2023/06/28 06:04:41;;;;;;;23.80;11.45;;;20.40;99.90;;;20.97;84.62;101644.50;4722169;30;20063;-83
2023/06/28 06:07:09;;;;;;;18.80;11.68;;;20.50;99.90;;;20.97;84.74;101639.09;4725688;30;20061;-80
2023/06/28 06:09:39;;;;;;;22.98;10.73;;;20.50;99.90;;;20.74;85.28;101633.66;4726840;30;20049;-83
2023/06/28 06:12:09;;;;;;;23.90;10.90;;;20.40;99.90;;;20.81;85.09;101637.00;4727499;30;20103;-82
2023/06/28 06:14:37;;;;;;;19.83;10.73;;;20.30;99.90;;;20.79;85.05;101634.34;4725869;30;20422;-83
2023/06/28 06:17:06;;;;;;;20.20;9.70;;;20.30;99.90;;;20.79;85.63;101637.03;4727104;30;20067;-82
2023/06/28 06:19:35;;;;;;;18.77;10.40;;;20.30;99.90;;;20.80;85.24;101630.75;4718051;30;20077;-81
2023/06/28 06:22:04;;;;;;;20.55;10.30;;;20.40;99.90;;;20.80;85.26;101616.41;4718119;30;20403;-83
2023/06/28 06:24:32;;;;;;;16.13;10.50;;;20.40;99.90;;;20.93;85.02;101637.47;4718261;30;20073;-81
2023/06/28 06:27:03;;;;;;;17.77;10.68;;;20.50;99.90;;;20.88;85.31;101634.06;4726239;30;20061;-80
2023/06/28 06:29:32;;;;;;;21.90;11.15;;;20.50;99.90;;;20.96;85.94;101636.47;4726655;30;20488;-80
2023/06/28 06:32:00;;;;;;;21.25;10.55;;;20.50;99.90;;;20.96;85.40;101639.16;4726841;30;20045;-81
2023/06/28 06:34:28;;;;;;;18.85;11.65;;;20.50;99.90;;;20.94;84.99;101639.22;4725925;30;20507;-80
2023/06/28 06:36:57;;;;;;;24.65;10.75;;;20.50;99.90;;;21.01;85.23;101638.09;4726447;30;20075;-83
2023/06/28 06:39:25;;;;;;;20.85;11.00;;;20.50;99.90;;;21.05;84.63;101642.44;4709671;30;20064;-87
2023/06/28 06:41:54;;;;;;;23.80;11.07;;;20.60;99.90;;;21.07;83.91;101647.78;4728088;30;20040;-87
2023/06/28 06:44:26;;;;;;;21.73;10.75;;;20.60;99.90;;;21.05;83.73;101645.13;4726787;30;20068;-88
2023/06/28 06:46:54;;;;;;;15.68;9.90;;;20.60;99.90;;;21.14;83.64;101646.59;4727032;30;20073;-86
2023/06/28 06:49:23;;;;;;;20.02;9.98;;;20.70;99.90;;;21.22;83.63;101648.09;4726568;30;20425;-79
2023/06/28 06:51:51;;;;;;;18.92;10.25;;;20.70;99.90;;;21.16;82.82;101647.44;4726231;30;20115;-80
2023/06/28 06:54:20;;;;;;;17.88;10.35;;;20.70;99.90;;;21.22;83.00;101648.09;4726110;30;20470;-82
2023/06/28 06:56:48;;;;;;;18.98;11.00;;;20.70;99.90;;;21.27;83.58;101661.41;4726753;30;20072;-80
2023/06/28 06:59:19;;;;;;;19.15;10.57;;;20.80;99.90;;;21.37;83.66;101654.72;4725405;30;20416;-82
2023/06/28 07:01:49;;;;;;;20.05;9.95;;;20.90;99.90;;;21.21;82.98;101632.03;4709150;30;20057;-86
2023/06/28 07:04:21;;;;;;;18.90;10.60;;;20.90;99.90;;;21.30;83.65;101661.28;4725177;30;20065;-85
2023/06/28 07:06:49;;;;;;;23.63;11.48;;;20.90;99.90;;;21.34;83.35;101654.88;4727245;30;20075;-80
2023/06/28 07:09:20;;;;;;;22.95;10.88;;;20.90;99.90;;;21.33;83.08;101663.88;4725640;30;20045;-79
2023/06/28 07:11:48;;;;;;;19.05;10.55;;;20.90;99.90;;;21.30;82.85;101659.47;4710566;30;20084;-81
2023/06/28 07:14:17;;;;;;;22.48;11.60;;;20.90;99.90;;;21.37;82.79;101662.81;4726528;30;20107;-77
2023/06/28 07:16:45;;;;;;;19.30;10.98;;;20.90;99.90;;;21.39;83.36;101664.53;4725302;30;20119;-77
2023/06/28 07:19:16;;;;;;;20.40;10.70;;;20.90;99.90;;;21.35;82.67;101662.88;4727841;30;20060;-76
2023/06/28 07:21:45;;;;;;;17.10;10.75;;;20.90;99.90;;;21.36;83.04;101667.34;4724765;30;20115;-74
2023/06/28 07:24:13;;;;;;;20.48;12.32;;;21.00;99.90;;;21.42;83.50;101667.13;4727647;30;20059;-80
2023/06/28 07:26:41;;;;;;;21.90;12.30;;;21.00;99.90;;;21.44;83.53;101667.06;4725170;30;20087;-79
2023/06/28 07:29:10;;;;;;;23.65;10.70;;;21.00;99.90;;;21.51;83.24;101671.28;4726602;30;20060;-78
2023/06/28 07:31:38;;;;;;;23.75;11.75;;;21.00;99.90;;;21.55;83.03;101675.63;4725339;30;20401;-78
2023/06/28 07:34:08;;;;;;;22.10;11.93;;;21.10;99.90;;;21.61;82.79;101669.13;4726023;30;20071;-75
2023/06/28 07:36:39;;;;;;;25.00;11.93;;;21.10;99.90;;;21.68;82.66;101665.28;4726274;30;20381;-76
2023/06/28 07:39:10;;;;;;;22.50;11.60;;;21.20;99.90;;;21.73;82.68;101664.16;4725267;30;20060;-74
2023/06/28 07:41:43;;;;;;;23.80;12.77;;;21.20;99.90;;;21.76;83.25;101664.03;4701474;30;20053;-76
2023/06/28 07:44:18;;;;;;;23.35;12.52;;;21.30;99.90;;;21.77;83.72;101665.81;4717260;30;20056;-79
2023/06/28 07:46:50;;;;;;;27.27;12.93;;;21.30;99.90;;;21.76;83.99;101664.03;4717129;30;20084;-78
2023/06/28 07:49:19;;;;;;;20.02;11.60;;;21.30;99.90;;;21.86;83.46;101664.59;4716671;30;20053;-79
2023/06/28 07:51:48;;;;;;;23.08;12.50;;;21.40;99.90;;;21.93;83.22;101660.75;4725657;30;20048;-84
2023/06/28 07:54:17;;;;;;;20.67;12.48;;;21.50;99.90;;;21.95;82.09;101669.66;4701288;30;20093;-80
2023/06/28 07:57:01;;;;;;;19.65;12.82;;;21.50;99.90;;;21.97;82.39;101670.47;4725822;30;20110;-80
2023/06/28 07:59:30;;;;;;;22.85;13.10;;;21.50;99.90;;;22.10;83.00;101663.66;4723686;30;20060;-81
2023/06/28 08:01:58;;;;;;;23.98;13.60;;;21.60;99.90;;;22.12;82.68;101662.69;4710930;30;20053;-80
2023/06/28 08:04:27;;;;;;;24.90;13.23;;;21.70;99.90;;;22.16;82.85;101666.97;4724075;30;20082;-81
2023/06/28 08:06:57;;;;;;;25.10;14.15;;;21.70;99.90;;;22.21;82.75;101665.00;4716572;30;20061;-73
2023/06/28 08:09:25;;;;;;;24.27;13.38;;;21.80;99.90;;;22.28;82.56;101665.63;4716358;30;20053;-88
2023/06/28 08:11:53;;;;;;;27.65;15.23;;;21.80;99.90;;;22.30;82.27;101675.41;4717690;30;20060;-88
2023/06/28 08:14:22;;;;;;;21.35;13.95;;;21.80;99.90;;;22.31;82.15;101661.00;4721492;30;20436;-80
2023/06/28 08:16:50;;;;;;;22.42;13.98;;;21.90;99.90;;;22.39;81.89;101682.25;4725724;30;20099;-80
2023/06/28 08:19:19;;;;;;;24.42;15.18;;;21.90;99.90;;;22.36;82.24;101677.88;4725615;30;20128;-78
2023/06/28 08:21:48;;;;;;;25.70;15.32;;;21.90;99.90;;;22.40;82.41;101668.72;4725117;30;20056;-79
2023/06/28 08:24:19;;;;;;;26.95;15.27;;;21.90;99.90;;;22.43;82.59;101673.97;4725072;30;20056;-79
2023/06/28 08:26:49;;;;;;;27.88;15.25;;;22.00;99.90;;;22.48;82.07;101675.59;4723684;30;20045;-79
2023/06/28 08:29:17;;;;;;;20.80;14.30;;;22.00;99.90;;;22.56;82.21;101674.38;4710949;30;20040;-80
2023/06/28 08:31:46;;;;;;;29.63;15.57;;;22.10;99.90;;;22.64;82.18;101674.09;4724227;30;20069;-80
2023/06/28 08:34:15;;;;;;;32.78;17.23;;;22.20;99.90;;;22.64;82.05;101660.59;4726320;30;20468;-80
2023/06/28 08:36:43;;;;;;;24.13;16.27;;;22.20;99.90;;;22.59;82.17;101673.41;4725800;30;20076;-81
2023/06/28 08:39:12;;;;;;;28.33;16.00;;;22.10;99.90;;;22.62;81.56;101681.34;4710344;30;20045;-80
2023/06/28 08:41:42;;;;;;;28.92;16.45;;;22.10;99.90;;;22.58;81.62;101671.63;4726010;30;20083;-84
2023/06/28 08:44:14;;;;;;;29.42;15.80;;;22.10;99.90;;;22.54;81.75;101665.47;4723674;30;20114;-79
2023/06/28 08:46:45;;;;;;;34.42;16.98;;;22.10;99.90;;;22.57;81.59;101667.19;4726856;30;20094;-81
2023/06/28 08:49:15;;;;;;;28.42;15.55;;;22.10;99.90;;;22.64;81.34;101668.69;4723867;30;20123;-83
2023/06/28 08:51:44;;;;;;;27.85;16.58;;;22.20;99.90;;;22.62;81.65;101670.56;4725938;30;20185;-82
2023/06/28 08:54:14;;;;;;;27.77;15.60;;;22.20;99.90;;;22.62;82.17;101670.56;4724535;30;20083;-82
2023/06/28 08:56:45;;;;;;;;;;;22.10;99.90;;;22.42;81.72;101636.28;4725592;30;20048;-82
2023/06/28 08:59:27;;;;;;;30.10;16.92;;;22.10;99.90;;;22.71;82.57;101678.28;4725071;30;19970;-80
2023/06/28 09:01:58;;;;;;;28.25;16.75;;;22.20;99.90;;;22.72;82.10;101674.66;4710060;30;20076;-81
2023/06/28 09:04:28;;;;;;;31.70;17.05;;;22.20;99.90;;;22.55;82.43;101644.78;4724743;30;20404;-81
2023/06/28 09:06:57;;;;;;;26.83;16.90;;;22.20;99.90;;;22.69;82.13;101681.03;4708765;30;20068;-80
2023/06/28 09:09:29;;;;;;;29.08;17.02;;;22.20;99.90;;;22.73;82.52;101671.00;4709629;30;20056;-81
2023/06/28 09:11:59;;;;;;;28.45;16.38;;;22.30;99.90;;;22.65;82.52;101674.00;4725267;30;20068;-80
2023/06/28 09:14:28;;;;;;;25.40;16.30;;;22.20;99.90;;;22.72;82.62;101669.25;4729692;30;20079;-78
2023/06/28 09:16:57;;;;;;;29.00;16.58;;;22.20;99.90;;;22.75;83.22;101671.81;4726956;30;20060;-81
2023/06/28 09:19:25;;;;;;;24.75;15.35;;;22.20;99.90;;;22.80;82.83;101667.13;4728574;30;20133;-82
2023/06/28 09:22:02;;;;;;;29.73;17.38;;;22.30;99.90;;;22.78;82.98;101666.31;4726430;30;20064;-81
2023/06/28 09:24:34;;;;;;;28.60;16.35;;;22.30;99.90;;;22.87;82.99;101668.59;4711116;30;20057;-78
2023/06/28 09:27:06;;;;;;;29.60;15.43;;;22.40;99.90;;;22.86;82.78;101667.72;4719444;30;20049;-76
2023/06/28 09:29:35;;;;;;;29.15;16.02;;;22.40;99.90;;;22.88;82.56;101657.72;4718091;30;20131;-76
2023/06/28 09:32:05;;;;;;;27.13;15.32;;;22.40;99.90;;;23.00;82.29;101661.72;4718858;30;20112;-82
2023/06/28 09:34:37;;;;;;;26.63;15.30;;;22.50;99.90;;;22.39;82.23;101559.13;4722526;30;20472;-85
2023/06/28 09:37:06;;;;;;;23.70;15.25;;;22.70;99.90;;;23.12;82.01;101661.22;4728705;30;20475;-85
2023/06/28 09:39:37;;;;;;;27.55;17.48;;;22.70;99.90;;;23.09;81.91;101653.25;4726664;30;20053;-86
2023/06/28 09:42:08;;;;;;;30.13;16.23;;;22.70;99.90;;;23.16;80.61;101662.81;4718787;30;20049;-82
2023/06/28 09:44:37;;;;;;;21.50;14.95;;;22.70;99.90;;;23.24;80.91;101663.38;4718783;30;20412;-86
2023/06/28 09:47:06;;;;;;;21.45;14.60;;;22.80;99.90;;;23.29;81.43;101666.75;4718975;30;20132;-86
2023/06/28 09:49:35;;;;;;;25.15;15.23;;;22.90;99.90;;;23.32;81.28;101666.66;4722174;30;20084;-87
2023/06/28 09:52:08;;;;;;;30.55;16.63;;;22.90;99.90;;;23.33;80.88;101662.09;4728034;30;20456;-85
2023/06/28 09:54:44;;;;;;;26.55;15.75;;;22.90;99.90;;;23.29;80.24;101659.53;4727010;30;20403;-86
2023/06/28 09:57:14;;;;;;;24.67;14.35;;;22.90;99.90;;;23.42;80.58;101664.41;4726522;30;20083;-87
2023/06/28 09:59:45;;;;;;;27.80;14.45;;;22.90;99.90;;;23.42;80.30;101657.22;4728280;30;20128;-87
2023/06/28 10:02:18;;;;;;;25.73;14.82;;;23.00;99.90;;;23.43;78.87;101668.84;4727264;30;20123;-88
2023/06/28 10:04:47;;;;;;;26.80;15.70;;;23.00;99.90;;;23.42;78.92;101667.13;4726982;30;20063;-87
2023/06/28 10:07:16;;;;;;;25.13;14.95;;;23.00;99.90;;;23.54;78.89;101666.56;4728466;30;20051;-87
2023/06/28 10:09:45;;;;;;;27.02;14.75;;;23.10;99.90;;;23.53;79.12;101670.22;4725712;30;20059;-87
2023/06/28 10:12:18;;;;;;;25.40;14.73;;;23.10;99.90;;;23.63;78.39;101671.56;4725880;30;20056;-87